Time;durP1;ratioP1;P1;durP2;ratioP2;P2;SDS_P1;SDS_P2;PMS_P1;PMS_P2;Temp;Humidity;BMP_temperature;BMP_pressure;BME280_temperature;BME280_humidity;BME280_pressure;Samples;Min_cycle;Max_cycle;Signal;HPM_P1;HPM_P2
2023/07/21 00:00:40;;;;;;;0.80;0.80;;;20.60;99.90;;;;;;4991227;28;20213;-68
2023/07/21 00:03:08;;;;;;;0.60;0.40;;;20.60;99.90;;;;;;4988176;28;20210;-68
2023/07/21 00:05:37;;;;;;;0.60;0.50;;;20.60;99.90;;;;;;4983211;28;20578;-67
2023/07/21 00:08:05;;;;;;;0.80;0.55;;;20.80;99.90;;;;;;4990127;28;20735;-67
2023/07/21 00:10:33;;;;;;;0.60;0.50;;;20.70;99.90;;;;;;4990895;28;20210;-67
2023/07/21 00:13:01;;;;;;;0.70;0.63;;;20.60;99.90;;;;;;4990241;28;20590;-68
2023/07/21 00:15:29;;;;;;;0.82;0.73;;;20.60;99.90;;;;;;4990882;28;20728;-67
2023/07/21 00:17:58;;;;;;;0.70;0.50;;;20.60;99.90;;;;;;4997113;28;20234;-68
2023/07/21 00:20:26;;;;;;;0.60;0.50;;;20.60;99.90;;;;;;4997005;28;20208;-66
2023/07/21 00:22:54;;;;;;;0.98;0.50;;;20.70;99.90;;;;;;4991073;28;20211;-66
2023/07/21 00:25:22;;;;;;;1.40;1.00;;;20.70;99.90;;;;;;4993798;28;20216;-66
2023/07/21 00:27:50;;;;;;;0.70;0.70;;;20.90;99.90;;;;;;4993552;28;20230;-65
2023/07/21 00:30:19;;;;;;;0.60;0.50;;;20.90;99.90;;;;;;4994350;28;20213;-66
2023/07/21 00:32:47;;;;;;;0.70;0.60;;;21.00;99.90;;;;;;4994502;28;20215;-65
2023/07/21 00:35:16;;;;;;;0.60;0.50;;;20.90;99.90;;;;;;4994079;28;20211;-65
2023/07/21 00:37:45;;;;;;;0.70;0.47;;;20.80;99.90;;;;;;4990486;28;20227;-65
2023/07/21 00:40:18;;;;;;;0.60;0.40;;;20.70;99.90;;;;;;4994335;28;20203;-67
2023/07/21 00:42:46;;;;;;;1.15;0.70;;;20.80;99.90;;;;;;4987177;28;20239;-67
2023/07/21 00:45:14;;;;;;;0.60;0.40;;;20.90;99.90;;;;;;4993859;28;20214;-66
2023/07/21 00:47:44;;;;;;;0.90;0.40;;;20.80;99.90;;;;;;4993687;28;20226;-67
2023/07/21 00:50:14;;;;;;;0.70;0.50;;;20.60;99.90;;;;;;5010025;28;20210;-66
2023/07/21 00:52:43;;;;;;;0.65;0.50;;;20.60;99.90;;;;;;4986302;28;20734;-66
2023/07/21 00:55:12;;;;;;;0.93;0.57;;;20.50;99.90;;;;;;4990081;28;20596;-67
2023/07/21 00:57:40;;;;;;;0.60;0.50;;;20.50;99.90;;;;;;4993384;28;20228;-67
2023/07/21 01:00:12;;;;;;;0.60;0.50;;;20.50;99.90;;;;;;4994072;28;20205;-67
2023/07/21 01:02:41;;;;;;;0.60;0.50;;;20.40;99.90;;;;;;4993694;28;20202;-67
2023/07/21 01:05:12;;;;;;;0.95;0.50;;;20.40;99.90;;;;;;4993702;28;20211;-67
2023/07/21 01:07:40;;;;;;;0.80;0.57;;;20.50;99.90;;;;;;4992547;28;20250;-67
2023/07/21 01:10:11;;;;;;;0.60;0.40;;;20.60;99.90;;;;;;4986989;28;20689;-66
2023/07/21 01:12:40;;;;;;;0.60;0.50;;;20.60;99.90;;;;;;4989521;28;20301;-67
2023/07/21 01:15:09;;;;;;;0.50;0.40;;;20.40;99.90;;;;;;4993455;28;20208;-67
2023/07/21 01:17:39;;;;;;;0.60;0.40;;;20.30;99.90;;;;;;4995718;28;20235;-66
2023/07/21 01:20:09;;;;;;;0.70;0.63;;;20.00;99.90;;;;;;5011135;28;20211;-66
2023/07/21 01:22:43;;;;;;;1.00;0.70;;;20.00;99.90;;;;;;4995164;28;22957;-66
2023/07/21 01:25:14;;;;;;;0.60;0.40;;;19.80;99.90;;;;;;4993270;28;20212;-66
2023/07/21 01:27:44;;;;;;;0.70;0.60;;;19.70;99.90;;;;;;4992919;28;20223;-66
2023/07/21 01:30:14;;;;;;;0.88;0.50;;;19.50;99.90;;;;;;4993215;28;20261;-66
2023/07/21 01:32:44;;;;;;;0.70;0.63;;;19.20;99.90;;;;;;4993225;28;20204;-67
2023/07/21 01:35:15;;;;;;;0.70;0.70;;;19.00;99.90;;;;;;4993162;28;20203;-67
2023/07/21 01:37:46;;;;;;;0.80;0.60;;;18.90;99.90;;;;;;4990854;28;20310;-67
2023/07/21 01:40:16;;;;;;;0.60;0.40;;;18.90;99.90;;;;;;4993357;28;20581;-66
2023/07/21 01:42:46;;;;;;;0.73;0.70;;;19.10;99.90;;;;;;4985104;28;20214;-66
2023/07/21 01:45:15;;;;;;;0.60;0.50;;;19.20;99.90;;;;;;4989250;28;20245;-65
2023/07/21 01:47:45;;;;;;;0.90;0.70;;;19.40;99.90;;;;;;4995125;28;20600;-66
2023/07/21 01:50:17;;;;;;;0.82;0.80;;;19.70;99.90;;;;;;5005256;28;20206;-65
2023/07/21 01:52:46;;;;;;;0.60;0.50;;;19.40;99.90;;;;;;4984257;28;20221;-65
2023/07/21 01:55:23;;;;;;;0.93;0.77;;;18.80;99.90;;;;;;4992403;28;20210;-65
2023/07/21 01:57:55;;;;;;;1.02;0.70;;;18.40;99.90;;;;;;4985058;28;20218;-65
2023/07/21 02:00:24;;;;;;;1.00;0.77;;;18.00;99.90;;;;;;4992684;28;20210;-65
2023/07/21 02:02:54;;;;;;;0.70;0.70;;;17.70;99.90;;;;;;4988436;28;20202;-66
2023/07/21 02:05:24;;;;;;;2.30;0.80;;;17.40;99.90;;;;;;4992269;28;20201;-67
2023/07/21 02:07:52;;;;;;;4.82;1.40;;;17.20;99.90;;;;;;4992060;28;20221;-67
2023/07/21 02:10:22;;;;;;;2.75;0.88;;;17.00;99.90;;;;;;4992456;28;20260;-67
2023/07/21 02:12:49;;;;;;;0.70;0.60;;;17.00;99.90;;;;;;4984949;28;20210;-66
2023/07/21 02:15:18;;;;;;;1.00;0.75;;;16.90;99.90;;;;;;4992380;28;20598;-66
2023/07/21 02:17:46;;;;;;;1.05;0.90;;;16.70;99.90;;;;;;4994963;28;20228;-64
2023/07/21 02:20:14;;;;;;;0.93;0.80;;;16.60;99.90;;;;;;5001644;28;20232;-66
2023/07/21 02:22:43;;;;;;;0.70;0.68;;;16.50;99.90;;;;;;4992217;28;20210;-66
2023/07/21 02:25:12;;;;;;;0.70;0.60;;;16.40;99.90;;;;;;4992102;28;20201;-66
2023/07/21 02:27:42;;;;;;;0.90;0.80;;;16.50;99.90;;;;;;4992069;28;20591;-66
2023/07/21 02:30:10;;;;;;;1.00;0.70;;;16.60;99.90;;;;;;4992193;28;20668;-66
2023/07/21 02:32:38;;;;;;;0.70;0.70;;;16.50;99.90;;;;;;4992303;28;20560;-66
2023/07/21 02:35:08;;;;;;;1.13;0.70;;;16.50;99.90;;;;;;4992001;28;20214;-66
2023/07/21 02:37:36;;;;;;;0.70;0.70;;;16.70;99.90;;;;;;4985189;28;20683;-66
2023/07/21 02:40:06;;;;;;;0.70;0.50;;;16.80;99.90;;;;;;4985971;28;20205;-66
2023/07/21 02:42:35;;;;;;;0.68;0.65;;;16.90;99.90;;;;;;4991838;28;20214;-66
2023/07/21 02:45:05;;;;;;;0.90;0.80;;;17.10;99.90;;;;;;4991886;28;20286;-66
2023/07/21 02:47:33;;;;;;;0.80;0.70;;;17.70;99.90;;;;;;4992074;28;20712;-66
2023/07/21 02:50:01;;;;;;;0.63;0.60;;;17.80;99.90;;;;;;5011141;28;20800;-66
2023/07/21 02:52:29;;;;;;;0.60;0.52;;;17.90;99.90;;;;;;4993916;28;20210;-66
2023/07/21 02:54:57;;;;;;;1.65;0.88;;;17.70;99.90;;;;;;4986572;28;20206;-66
2023/07/21 02:57:25;;;;;;;0.70;0.60;;;17.50;99.90;;;;;;4991793;28;20607;-66
2023/07/21 02:59:53;;;;;;;0.70;0.70;;;17.40;99.90;;;;;;4983799;28;20228;-67
2023/07/21 03:02:23;;;;;;;1.08;0.98;;;17.40;99.90;;;;;;4991616;28;20257;-67
2023/07/21 03:04:51;;;;;;;0.90;0.60;;;17.50;99.90;;;;;;4991411;28;20665;-67
2023/07/21 03:07:19;;;;;;;1.38;1.00;;;17.60;99.90;;;;;;4991695;28;20211;-67
2023/07/21 03:09:47;;;;;;;0.93;0.82;;;17.60;99.90;;;;;;4990610;28;20202;-67
2023/07/21 03:12:15;;;;;;;0.90;0.73;;;17.50;99.90;;;;;;4991677;28;20687;-68
2023/07/21 03:14:43;;;;;;;0.63;0.60;;;17.60;99.90;;;;;;4993347;28;20691;-68
2023/07/21 03:17:13;;;;;;;1.05;0.90;;;17.60;99.90;;;;;;4997422;28;20341;-68
2023/07/21 03:19:42;;;;;;;0.80;0.80;;;17.60;99.90;;;;;;5008613;28;20225;-67
2023/07/21 03:22:10;;;;;;;0.88;0.77;;;17.60;99.90;;;;;;5003023;28;20202;-68
2023/07/21 03:24:39;;;;;;;1.52;1.42;;;17.60;99.90;;;;;;4990948;28;20677;-66
2023/07/21 03:27:07;;;;;;;1.00;0.70;;;17.60;99.90;;;;;;4988592;28;20201;-65
2023/07/21 03:29:35;;;;;;;0.77;0.63;;;17.70;99.90;;;;;;4988485;28;20205;-65
2023/07/21 03:32:03;;;;;;;0.80;0.70;;;17.60;99.90;;;;;;4991457;28;20729;-66
2023/07/21 03:34:31;;;;;;;0.93;0.82;;;17.60;99.90;;;;;;4991199;28;20209;-65
2023/07/21 03:37:04;;;;;;;0.80;0.50;;;17.50;99.90;;;;;;4991199;28;20268;-65
2023/07/21 03:39:32;;;;;;;0.75;0.63;;;17.50;99.90;;;;;;4990330;28;20249;-65
2023/07/21 03:42:00;;;;;;;0.70;0.60;;;17.40;99.90;;;;;;4991171;28;20595;-65
2023/07/21 03:44:28;;;;;;;0.85;0.63;;;17.50;99.90;;;;;;4985862;28;20225;-65
2023/07/21 03:46:56;;;;;;;0.80;0.80;;;17.70;99.90;;;;;;4999163;28;20626;-65
2023/07/21 03:49:24;;;;;;;0.80;0.80;;;17.70;99.90;;;;;;5026438;23;20283;-69
2023/07/21 03:51:52;;;;;;;0.70;0.60;;;17.90;99.90;;;;;;4999101;28;20214;-68
2023/07/21 03:54:21;;;;;;;0.90;0.68;;;18.10;99.90;;;;;;4991304;28;20202;-68
2023/07/21 03:56:49;;;;;;;0.80;0.60;;;18.30;99.90;;;;;;4990878;28;20225;-68
2023/07/21 03:59:17;;;;;;;0.65;0.50;;;18.40;99.90;;;;;;4992776;28;20704;-68
2023/07/21 04:01:45;;;;;;;0.75;0.55;;;18.40;99.90;;;;;;5003342;28;20582;-67
2023/07/21 04:04:15;;;;;;;0.73;0.73;;;18.70;99.90;;;;;;4995168;28;20320;-67
2023/07/21 04:06:43;;;;;;;0.60;0.50;;;18.90;99.90;;;;;;4994625;28;20224;-67
2023/07/21 04:09:13;;;;;;;0.60;0.40;;;19.10;99.90;;;;;;4994653;28;20223;-68
2023/07/21 04:11:43;;;;;;;0.60;0.60;;;19.10;99.90;;;;;;5005629;28;20285;-68
2023/07/21 04:14:11;;;;;;;0.70;0.60;;;18.80;99.90;;;;;;4994865;28;20209;-68
2023/07/21 04:16:38;;;;;;;0.70;0.60;;;19.00;99.90;;;;;;5002946;28;20206;-68
2023/07/21 04:19:06;;;;;;;0.60;0.50;;;19.30;99.90;;;;;;5013053;28;20225;-67
2023/07/21 04:21:34;;;;;;;1.17;1.00;;;19.50;99.90;;;;;;5005681;28;20217;-68
2023/07/21 04:24:02;;;;;;;0.80;0.50;;;19.50;99.90;;;;;;4994851;28;20202;-68
2023/07/21 04:26:33;;;;;;;1.13;0.55;;;19.30;99.90;;;;;;5002947;28;20213;-68
2023/07/21 04:29:02;;;;;;;0.70;0.65;;;18.80;99.90;;;;;;4992763;28;20231;-68
2023/07/21 04:31:30;;;;;;;0.60;0.50;;;18.50;99.90;;;;;;4998676;28;20212;-68
2023/07/21 04:33:58;;;;;;;0.80;0.57;;;18.20;99.90;;;;;;5005246;28;20213;-67
2023/07/21 04:36:27;;;;;;;0.70;0.50;;;18.10;99.90;;;;;;5004928;28;20758;-68
2023/07/21 04:38:56;;;;;;;0.70;0.60;;;18.50;99.90;;;;;;5001984;28;20236;-68
2023/07/21 04:41:25;;;;;;;0.60;0.40;;;18.60;99.90;;;;;;5005821;28;20750;-68
2023/07/21 04:43:52;;;;;;;0.70;0.50;;;18.30;99.90;;;;;;5004263;28;20212;-68
2023/07/21 04:46:22;;;;;;;0.60;0.50;;;18.10;99.90;;;;;;5005211;28;20264;-67
2023/07/21 04:48:50;;;;;;;0.70;0.60;;;18.00;99.90;;;;;;5002003;28;21194;-67
2023/07/21 04:51:18;;;;;;;0.60;0.50;;;17.70;99.90;;;;;;5005869;28;20213;-67
2023/07/21 04:53:46;;;;;;;2.15;0.50;;;17.30;99.90;;;;;;5004259;28;20296;-67
2023/07/21 04:56:14;;;;;;;0.60;0.60;;;17.00;99.90;;;;;;5005207;28;20216;-67
2023/07/21 04:58:42;;;;;;;0.90;0.80;;;16.80;99.90;;;;;;5000175;28;20237;-68
2023/07/21 05:01:10;;;;;;;0.70;0.60;;;16.60;99.90;;;;;;5004951;28;20217;-67
2023/07/21 05:03:41;;;;;;;0.88;0.82;;;16.40;99.90;;;;;;5004696;28;20222;-67
2023/07/21 05:06:10;;;;;;;0.90;0.65;;;16.40;99.90;;;;;;5004525;28;20221;-67
2023/07/21 05:08:38;;;;;;;0.60;0.55;;;16.30;99.90;;;;;;5000668;28;20237;-66
2023/07/21 05:11:09;;;;;;;1.20;1.10;;;16.30;99.90;;;;;;5003368;28;20209;-67
2023/07/21 05:13:37;;;;;;;0.80;0.75;;;16.20;99.90;;;;;;5003939;28;20971;-67
2023/07/21 05:16:05;;;;;;;1.02;0.70;;;16.20;99.90;;;;;;5004518;28;20216;-67
2023/07/21 05:18:34;;;;;;;0.80;0.80;;;16.20;99.90;;;;;;5001754;28;20247;-70
2023/07/21 05:21:03;;;;;;;0.98;0.95;;;16.40;99.90;;;;;;5002402;28;20220;-69
2023/07/21 05:23:31;;;;;;;0.70;0.63;;;16.50;99.90;;;;;;5003833;28;20668;-69
2023/07/21 05:26:00;;;;;;;0.70;0.60;;;16.50;99.90;;;;;;5002648;28;20714;-69
2023/07/21 05:28:29;;;;;;;0.90;0.60;;;16.70;99.90;;;;;;5001523;28;20232;-70
2023/07/21 05:30:57;;;;;;;1.00;0.90;;;17.20;99.90;;;;;;5003387;28;20220;-69
2023/07/21 05:33:25;;;;;;;0.93;0.90;;;17.30;99.90;;;;;;5004805;28;20251;-69
2023/07/21 05:35:53;;;;;;;1.13;0.60;;;17.50;99.90;;;;;;5003808;28;20291;-69
2023/07/21 05:38:22;;;;;;;1.50;0.75;;;17.60;99.90;;;;;;5003501;28;20220;-69
2023/07/21 05:40:57;;;;;;;0.73;0.63;;;17.70;99.90;;;;;;5001244;28;20216;-69
2023/07/21 05:43:25;;;;;;;1.05;0.80;;;17.70;99.90;;;;;;5003364;28;20680;-69
2023/07/21 05:45:53;;;;;;;0.60;0.50;;;17.80;99.90;;;;;;5004087;28;20213;-69
2023/07/21 05:48:21;;;;;;;0.70;0.70;;;17.80;99.90;;;;;;5003081;28;20216;-69
2023/07/21 05:50:49;;;;;;;0.60;0.60;;;18.00;99.90;;;;;;5000980;28;20224;-69
2023/07/21 05:53:17;;;;;;;0.93;0.88;;;18.00;99.90;;;;;;5010727;28;20214;-69
2023/07/21 05:55:47;;;;;;;0.88;0.88;;;18.10;99.90;;;;;;5006843;28;20205;-69
2023/07/21 05:58:14;;;;;;;0.98;0.88;;;18.20;99.90;;;;;;5003462;28;20584;-69
2023/07/21 06:00:42;;;;;;;0.93;0.70;;;18.50;99.90;;;;;;5004831;28;20635;-69
2023/07/21 06:03:10;;;;;;;0.75;0.75;;;18.80;99.90;;;;;;5019426;28;20738;-70
2023/07/21 06:05:38;;;;;;;0.70;0.57;;;18.90;99.90;;;;;;5010083;28;20210;-69
2023/07/21 06:08:07;;;;;;;0.60;0.50;;;19.00;99.90;;;;;;5011901;28;20213;-69
2023/07/21 06:10:35;;;;;;;0.60;0.50;;;19.00;99.90;;;;;;5001509;28;20220;-69
2023/07/21 06:13:06;;;;;;;1.35;1.08;;;19.20;99.90;;;;;;5002233;28;20643;-70
2023/07/21 06:15:36;;;;;;;0.60;0.60;;;19.20;99.90;;;;;;4992529;28;20206;-70
2023/07/21 06:18:05;;;;;;;0.70;0.57;;;19.10;99.90;;;;;;4995944;28;20229;-71
2023/07/21 06:20:33;;;;;;;1.02;0.93;;;19.20;99.90;;;;;;5005068;28;20249;-70
2023/07/21 06:23:01;;;;;;;0.60;0.50;;;19.30;99.90;;;;;;4999851;28;20209;-67
2023/07/21 06:25:29;;;;;;;0.60;0.50;;;19.40;99.90;;;;;;4992372;28;20237;-66
2023/07/21 06:27:57;;;;;;;0.60;0.45;;;19.50;99.90;;;;;;4993641;28;20288;-68
2023/07/21 06:30:26;;;;;;;0.70;0.60;;;19.40;99.90;;;;;;5007794;28;20244;-68
2023/07/21 06:32:55;;;;;;;0.80;0.50;;;19.30;99.90;;;;;;4993265;28;20234;-68
2023/07/21 06:35:23;;;;;;;0.82;0.55;;;19.20;99.90;;;;;;4992110;28;20228;-70
2023/07/21 06:37:50;;;;;;;0.80;0.65;;;19.20;99.90;;;;;;4991198;28;20219;-70
2023/07/21 06:40:19;;;;;;;0.70;0.60;;;19.10;99.90;;;;;;4991600;28;20225;-70
2023/07/21 06:42:47;;;;;;;0.60;0.50;;;19.10;99.90;;;;;;4990702;28;20208;-70
2023/07/21 06:45:15;;;;;;;0.70;0.55;;;19.00;99.90;;;;;;4997388;28;20213;-70
2023/07/21 06:47:45;;;;;;;0.60;0.40;;;19.00;99.90;;;;;;5001179;28;20212;-70
2023/07/21 06:50:13;;;;;;;1.17;0.70;;;19.00;99.90;;;;;;4998117;28;20236;-69
2023/07/21 06:52:40;;;;;;;0.70;0.60;;;18.90;99.90;;;;;;4996374;28;20226;-70
2023/07/21 06:55:09;;;;;;;0.70;0.57;;;18.90;99.90;;;;;;4991571;28;20315;-70
2023/07/21 06:57:37;;;;;;;0.77;0.70;;;18.90;99.90;;;;;;4992065;28;20217;-68
2023/07/21 07:00:08;;;;;;;0.70;0.50;;;19.10;99.90;;;;;;4992585;28;20222;-68
2023/07/21 07:02:36;;;;;;;1.67;0.60;;;19.20;99.90;;;;;;4998090;28;20217;-68
2023/07/21 07:05:06;;;;;;;0.60;0.57;;;19.20;99.90;;;;;;4992872;28;20206;-68
2023/07/21 07:07:34;;;;;;;0.60;0.50;;;19.20;99.90;;;;;;4991967;28;20233;-68
2023/07/21 07:10:02;;;;;;;0.70;0.43;;;19.30;99.90;;;;;;4993030;28;20231;-67
2023/07/21 07:12:30;;;;;;;0.60;0.50;;;19.30;99.90;;;;;;4997751;28;20267;-68
2023/07/21 07:14:58;;;;;;;0.80;0.55;;;19.20;99.90;;;;;;4991377;28;20207;-68
2023/07/21 07:17:26;;;;;;;0.93;0.88;;;19.40;99.90;;;;;;4998465;28;20216;-68
2023/07/21 07:19:54;;;;;;;0.60;0.60;;;19.50;99.90;;;;;;5008649;28;20791;-68
2023/07/21 07:22:23;;;;;;;0.80;0.50;;;19.60;99.90;;;;;;4991414;28;20210;-68
2023/07/21 07:24:51;;;;;;;0.70;0.60;;;19.80;99.90;;;;;;4991291;28;20217;-68
2023/07/21 07:27:19;;;;;;;0.60;0.60;;;20.00;99.90;;;;;;4991636;28;20662;-68
2023/07/21 07:29:47;;;;;;;0.73;0.55;;;20.00;99.90;;;;;;4991467;28;20705;-68
2023/07/21 07:32:16;;;;;;;0.73;0.55;;;20.10;99.90;;;;;;4999361;28;20202;-67
2023/07/21 07:34:43;;;;;;;0.60;0.50;;;20.00;99.90;;;;;;4995510;28;20277;-67
2023/07/21 07:37:11;;;;;;;1.15;0.88;;;19.90;99.90;;;;;;5000983;28;20209;-67
2023/07/21 07:39:41;;;;;;;0.70;0.50;;;20.00;99.90;;;;;;4995414;28;20253;-67
2023/07/21 07:42:09;;;;;;;0.90;0.70;;;20.10;99.90;;;;;;5003318;28;20716;-68
2023/07/21 07:44:36;;;;;;;0.70;0.70;;;19.90;99.90;;;;;;4995437;28;20215;-67
2023/07/21 07:47:05;;;;;;;0.70;0.60;;;20.00;99.90;;;;;;4998834;28;20214;-67
2023/07/21 07:49:35;;;;;;;0.60;0.50;;;20.10;99.90;;;;;;5014613;28;20245;-67
2023/07/21 07:52:03;;;;;;;0.60;0.40;;;20.20;99.90;;;;;;5005283;28;20213;-67
2023/07/21 07:54:31;;;;;;;0.60;0.50;;;20.30;99.90;;;;;;4995329;28;20207;-67
2023/07/21 07:57:00;;;;;;;0.60;0.50;;;20.30;99.90;;;;;;5005394;28;20209;-67
2023/07/21 07:59:28;;;;;;;0.60;0.40;;;20.30;99.90;;;;;;4995113;28;20226;-67
2023/07/21 08:01:57;;;;;;;0.70;0.70;;;20.30;99.90;;;;;;4994587;28;20257;-67
2023/07/21 08:04:26;;;;;;;0.60;0.52;;;20.50;99.90;;;;;;4995122;28;20216;-67
2023/07/21 08:06:54;;;;;;;0.60;0.50;;;20.40;99.90;;;;;;4994934;28;20301;-67
2023/07/21 08:09:22;;;;;;;1.15;1.10;;;20.50;99.90;;;;;;4998431;28;20700;-67
2023/07/21 08:11:50;;;;;;;2.15;0.57;;;20.60;99.90;;;;;;4999999;28;20542;-67
2023/07/21 08:14:19;;;;;;;0.60;0.50;;;20.60;99.90;;;;;;5000498;28;20211;-68
2023/07/21 08:16:47;;;;;;;0.65;0.60;;;20.80;99.90;;;;;;4996076;28;20218;-67
2023/07/21 08:19:15;;;;;;;0.70;0.50;;;20.80;99.90;;;;;;5011660;28;20276;-67
2023/07/21 08:21:43;;;;;;;0.60;0.40;;;21.00;99.90;;;;;;5002726;28;20237;-67
2023/07/21 08:24:11;;;;;;;1.35;1.05;;;21.10;99.90;;;;;;5002508;28;20204;-67
2023/07/21 08:26:39;;;;;;;2.97;1.13;;;21.20;99.90;;;;;;4994451;28;20211;-68
2023/07/21 08:29:08;;;;;;;0.65;0.63;;;21.20;99.90;;;;;;4996795;28;20218;-67
2023/07/21 08:31:38;;;;;;;0.90;0.55;;;21.30;99.90;;;;;;4994355;28;20216;-67
2023/07/21 08:34:05;;;;;;;0.60;0.50;;;21.40;99.90;;;;;;4994409;28;20210;-67
2023/07/21 08:36:33;;;;;;;1.13;0.50;;;21.40;99.90;;;;;;4994462;28;20611;-67
2023/07/21 08:39:20;;;;;;;0.60;0.50;;;21.30;99.90;;;;;;4994194;28;20266;-67
2023/07/21 08:41:51;;;;;;;1.08;0.73;;;21.30;99.90;;;;;;4994245;28;20276;-67
2023/07/21 08:44:20;;;;;;;0.70;0.50;;;21.30;99.90;;;;;;5001919;28;20751;-66
2023/07/21 08:46:49;;;;;;;0.75;0.65;;;21.30;99.90;;;;;;4995652;28;20215;-67
2023/07/21 08:49:18;;;;;;;0.60;0.50;;;21.30;99.90;;;;;;5002664;28;20238;-67
2023/07/21 08:51:46;;;;;;;0.60;0.50;;;21.40;99.90;;;;;;5008538;28;20206;-67
2023/07/21 08:54:14;;;;;;;0.75;0.60;;;21.40;99.90;;;;;;4995745;28;20241;-67
2023/07/21 08:56:42;;;;;;;0.70;0.50;;;21.40;99.90;;;;;;4994033;28;20214;-67
2023/07/21 08:59:10;;;;;;;0.60;0.60;;;21.50;99.90;;;;;;4994083;28;20574;-67
2023/07/21 09:01:38;;;;;;;0.70;0.50;;;21.60;99.90;;;;;;4993827;28;20354;-67
2023/07/21 09:04:18;;;;;;;0.60;0.40;;;21.60;99.90;;;;;;4993907;28;20221;-67
2023/07/21 09:06:50;;;;;;;0.98;0.88;;;21.50;99.90;;;;;;4993867;28;20818;-67
2023/07/21 09:09:19;;;;;;;0.65;0.60;;;21.60;99.90;;;;;;4993819;28;20238;-67
2023/07/21 09:11:48;;;;;;;0.80;0.80;;;21.60;99.90;;;;;;4993704;28;20204;-67
2023/07/21 09:14:16;;;;;;;0.70;0.50;;;21.50;99.90;;;;;;4993725;28;20277;-67
2023/07/21 09:16:44;;;;;;;0.60;0.50;;;21.60;99.90;;;;;;4995823;28;20351;-67
2023/07/21 09:19:20;;;;;;;0.65;0.55;;;21.60;99.90;;;;;;5012602;28;20233;-67
2023/07/21 09:21:56;;;;;;;0.70;0.60;;;21.70;99.90;;;;;;5006990;28;20225;-67
2023/07/21 09:24:24;;;;;;;0.60;0.50;;;21.90;99.90;;;;;;4993539;28;20207;-67
2023/07/21 09:27:11;;;;;;;0.80;0.70;;;22.10;99.90;;;;;;4993460;28;20273;-67
2023/07/21 09:29:40;;;;;;;0.70;0.52;;;22.30;99.90;;;;;;4993523;28;20242;-67
2023/07/21 09:32:13;;;;;;;0.80;0.55;;;22.30;99.90;;;;;;4993154;28;20206;-67
2023/07/21 09:34:55;;;;;;;0.70;0.60;;;22.50;99.90;;;;;;4993610;28;20591;-67
2023/07/21 09:37:25;;;;;;;0.60;0.40;;;22.60;99.90;;;;;;5001408;28;20212;-67
2023/07/21 09:39:56;;;;;;;1.20;0.68;;;22.70;99.90;;;;;;4993295;28;20238;-67
2023/07/21 09:42:25;;;;;;;0.60;0.43;;;22.80;99.90;;;;;;4992867;28;20235;-67
2023/07/21 09:44:54;;;;;;;0.70;0.60;;;22.90;99.90;;;;;;4993134;28;20220;-67
2023/07/21 09:47:23;;;;;;;0.60;0.50;;;23.00;99.90;;;;;;4999365;28;20289;-67
2023/07/21 09:49:53;;;;;;;0.90;0.50;;;22.90;99.90;;;;;;5045599;23;20287;-66
2023/07/21 09:52:23;;;;;;;0.60;0.50;;;23.00;99.90;;;;;;5011960;28;20298;-68
2023/07/21 09:55:08;;;;;;;0.63;0.50;;;23.00;99.90;;;;;;5012476;28;20639;-67
2023/07/21 09:57:41;;;;;;;0.70;0.60;;;23.10;99.90;;;;;;5012752;28;20206;-67
2023/07/21 10:00:13;;;;;;;0.60;0.50;;;23.10;99.90;;;;;;5012405;28;20238;-67
2023/07/21 10:02:42;;;;;;;0.60;0.50;;;23.20;99.90;;;;;;5012344;28;20226;-68
2023/07/21 10:05:11;;;;;;;0.60;0.52;;;23.20;99.90;;;;;;5012116;28;20670;-68
2023/07/21 10:07:42;;;;;;;0.70;0.70;;;23.30;99.90;;;;;;5012535;28;20209;-68
2023/07/21 10:10:12;;;;;;;0.60;0.40;;;23.50;99.90;;;;;;5012194;28;20288;-68
2023/07/21 10:12:48;;;;;;;0.60;0.50;;;23.50;99.90;;;;;;5012004;28;20215;-68
2023/07/21 10:15:19;;;;;;;0.95;0.82;;;23.50;99.90;;;;;;5012117;28;20219;-68
2023/07/21 10:17:58;;;;;;;0.68;0.55;;;23.60;99.90;;;;;;5016452;28;20254;-68
2023/07/21 10:20:40;;;;;;;0.70;0.60;;;23.40;99.90;;;;;;5030392;28;20226;-66
2023/07/21 10:23:10;;;;;;;1.80;0.70;;;23.30;99.90;;;;;;5014829;28;20266;-68
2023/07/21 10:26:00;;;;;;;0.60;0.60;;;23.20;99.90;;;;;;5012048;28;20215;-68
2023/07/21 10:28:42;;;;;;;0.60;0.55;;;23.10;99.90;;;;;;5011809;28;20223;-67
2023/07/21 10:31:36;;;;;;;0.80;0.50;;;22.80;99.90;;;;;;5011954;28;20587;-67
2023/07/21 10:34:08;;;;;;;0.88;0.60;;;22.90;99.90;;;;;;5012039;28;20210;-67
2023/07/21 10:36:44;;;;;;;0.70;0.70;;;22.90;99.90;;;;;;5011738;28;20236;-68
2023/07/21 10:39:16;;;;;;;0.77;0.55;;;23.00;99.90;;;;;;5011760;28;20560;-67
2023/07/21 10:41:44;;;;;;;0.85;0.85;;;23.00;99.90;;;;;;5013903;28;20613;-67
2023/07/21 10:44:12;;;;;;;0.70;0.60;;;23.00;99.90;;;;;;5013338;28;20245;-68
2023/07/21 10:46:42;;;;;;;0.60;0.50;;;23.00;99.90;;;;;;5012344;28;20686;-68
2023/07/21 10:49:12;;;;;;;0.60;0.50;;;23.00;99.90;;;;;;5030642;28;20674;-68
2023/07/21 10:51:41;;;;;;;0.60;0.43;;;23.10;99.90;;;;;;5019101;28;20661;-68
2023/07/21 10:54:10;;;;;;;0.60;0.40;;;23.10;99.90;;;;;;5011651;28;20214;-68
2023/07/21 10:56:41;;;;;;;0.70;0.60;;;23.20;99.90;;;;;;5014242;28;20213;-68
2023/07/21 10:59:09;;;;;;;0.60;0.40;;;23.20;99.90;;;;;;5015148;28;20238;-68
2023/07/21 11:01:41;;;;;;;0.70;0.60;;;23.20;99.90;;;;;;5011416;28;20213;-68
2023/07/21 11:04:11;;;;;;;0.80;0.63;;;23.20;99.90;;;;;;5011332;28;20273;-68
2023/07/21 11:06:40;;;;;;;0.50;0.40;;;23.20;99.90;;;;;;5011411;28;20222;-68
2023/07/21 11:09:11;;;;;;;1.45;0.70;;;23.30;99.90;;;;;;5011049;28;20317;-68
2023/07/21 11:11:45;;;;;;;0.50;0.40;;;23.30;99.90;;;;;;5011467;28;20214;-68
2023/07/21 11:14:15;;;;;;;1.10;0.75;;;23.30;99.90;;;;;;5010862;28;20196;-68
2023/07/21 11:16:44;;;;;;;0.70;0.60;;;23.30;99.90;;;;;;5012528;28;20222;-68
2023/07/21 11:19:12;;;;;;;0.60;0.50;;;23.40;99.90;;;;;;5030890;28;20249;-68
2023/07/21 11:21:40;;;;;;;0.50;0.40;;;23.50;99.90;;;;;;5027190;28;20202;-68
2023/07/21 11:24:09;;;;;;;0.60;0.50;;;23.60;99.90;;;;;;5011232;28;20221;-68
2023/07/21 11:26:37;;;;;;;0.60;0.50;;;23.90;99.90;;;;;;5010869;28;20210;-67
2023/07/21 11:29:08;;;;;;;0.70;0.60;;;23.90;99.90;;;;;;5011157;28;20269;-68
2023/07/21 11:31:38;;;;;;;0.60;0.40;;;24.00;99.90;;;;;;5011144;28;20650;-68
2023/07/21 11:34:18;;;;;;;0.60;0.50;;;24.20;99.90;;;;;;5012115;28;20203;-68
2023/07/21 11:36:48;;;;;;;0.70;0.65;;;24.30;99.90;;;;;;5012595;28;20198;-68
2023/07/21 11:39:20;;;;;;;0.90;0.50;;;24.40;99.90;;;;;;5010765;28;20225;-67
2023/07/21 11:41:50;;;;;;;0.60;0.50;;;24.50;99.90;;;;;;5011153;28;20207;-66
2023/07/21 11:44:21;;;;;;;0.80;0.75;;;24.50;99.90;;;;;;5019071;28;20727;-67
2023/07/21 11:46:55;;;;;;;2.85;0.60;;;24.40;99.90;;;;;;5012854;28;20215;-68
2023/07/21 11:49:23;;;;;;;0.60;0.50;;;24.20;99.90;;;;;;5024897;28;20243;-68
2023/07/21 11:51:52;;;;;;;0.70;0.63;;;24.10;99.90;;;;;;5025767;28;20230;-69
2023/07/21 11:54:21;;;;;;;0.60;0.50;;;24.00;99.90;;;;;;5010827;28;20689;-68
2023/07/21 11:56:50;;;;;;;0.80;0.50;;;24.00;99.90;;;;;;5010899;28;20234;-68
2023/07/21 11:59:20;;;;;;;0.70;0.50;;;23.90;99.90;;;;;;5018881;28;20232;-67
2023/07/21 12:01:48;;;;;;;0.60;0.50;;;23.70;99.90;;;;;;5010908;28;20211;-68
2023/07/21 12:04:18;;;;;;;4.05;0.82;;;23.70;99.90;;;;;;5010670;28;20635;-68
2023/07/21 12:06:46;;;;;;;0.60;0.55;;;23.60;99.90;;;;;;5010978;28;20211;-68
2023/07/21 12:09:14;;;;;;;0.60;0.60;;;23.40;99.90;;;;;;5011685;28;20236;-68
2023/07/21 12:11:42;;;;;;;1.00;0.90;;;23.30;99.90;;;;;;5010788;28;20199;-68
2023/07/21 12:14:11;;;;;;;0.60;0.40;;;23.10;99.90;;;;;;5018773;28;20206;-68
2023/07/21 12:16:40;;;;;;;0.60;0.55;;;23.00;99.90;;;;;;5010809;28;20207;-68
2023/07/21 12:19:09;;;;;;;0.70;0.60;;;22.90;99.90;;;;;;5030489;28;20314;-68
2023/07/21 12:21:37;;;;;;;0.60;0.50;;;22.70;99.90;;;;;;5031360;28;20206;-68
2023/07/21 12:24:13;;;;;;;0.60;0.50;;;22.50;99.90;;;;;;5014304;28;20218;-68
2023/07/21 12:26:41;;;;;;;1.00;0.82;;;22.20;99.90;;;;;;5013920;28;20202;-68
2023/07/21 12:29:09;;;;;;;0.60;0.55;;;21.90;99.90;;;;;;5014196;28;20222;-68
2023/07/21 12:31:38;;;;;;;0.80;0.70;;;21.70;99.90;;;;;;5027089;28;20229;-68
2023/07/21 12:34:07;;;;;;;0.60;0.40;;;21.60;99.90;;;;;;5019189;28;20209;-68
2023/07/21 12:36:35;;;;;;;0.60;0.50;;;21.50;99.90;;;;;;5013765;28;20288;-68
2023/07/21 12:39:04;;;;;;;0.60;0.40;;;21.40;99.90;;;;;;5018085;28;20234;-68
2023/07/21 12:41:32;;;;;;;0.60;0.40;;;21.30;99.90;;;;;;5015601;28;20236;-67
2023/07/21 12:44:00;;;;;;;0.70;0.60;;;21.30;99.90;;;;;;5013582;28;20230;-69
2023/07/21 12:46:28;;;;;;;0.60;0.50;;;21.20;99.90;;;;;;5013540;28;20720;-69
2023/07/21 12:48:56;;;;;;;0.80;0.70;;;21.10;99.90;;;;;;5013593;28;20241;-68
2023/07/21 12:51:25;;;;;;;0.80;0.70;;;21.10;99.90;;;;;;5013651;28;20228;-68
2023/07/21 12:53:53;;;;;;;0.80;0.55;;;21.10;99.90;;;;;;5013636;28;20210;-68
2023/07/21 12:56:21;;;;;;;0.60;0.40;;;21.30;99.90;;;;;;5013377;28;20735;-66
2023/07/21 12:58:49;;;;;;;0.68;0.55;;;21.40;99.90;;;;;;5013613;28;20232;-68